Baileyville, IL (61007)

6:18 AM CDT on July 29, 2016 (GMT -0500)
wind swept valley | | Change Station

Elev 810 ft 42.25 °N, 89.55 °W | Updated 12 minutes ago

Overcast
Overcast
65.5 °F
Feels Like 65.5 °F
N
5.8
Wind Variable Wind from NE

Today
High -- | Low -- °F
--% Chance of Precip.
Yesterday
High -- | Low -- °F
Precip. -- in
Pressure 29.96 in
Visibility 10.0 miles
Clouds Overcast 1000 ft
Dew Point 63 °F
Humidity 91%
Rainfall 0.00 in
Snow Depth Not available.
5:48 AM 8:20 PM
Waning Crescent, 23% visible
METAR KFEP 291115Z AUTO 06004KT 10SM OVC010 18/17 A2996 RMK AO2 T01830172
Pressure 29.96 in
Visibility 10.0 miles
Clouds Overcast 1000 ft
Dew Point 63 °F
Humidity 91%
Rainfall 0.00 in
Snow Depth Not available.
5:48 AM 8:20 PM
Waning Crescent, 23% visible
METAR KFEP 291115Z AUTO 06004KT 10SM OVC010 18/17 A2996 RMK AO2 T01830172

10-Day Weather Forecast

Almanac

Astronomy

Jul. 29, 2016 Rise Set
Actual Time
Civil Twilight
Nautical Twilight
Astronomical Twilight
Moon
Length of Visible Light
Length of Day
Tomorrow will be .
, % of the Moon is Illuminated

Today's Extremes

State Highs State Lows

Community

WunderPhotos

Upload Photos

1,928,312 photos uploaded!

WunderBlog® & News

Nearby

Air Quality

  Air Quality AQ Index Pollutant
Not available.

Snow Depth

Station Depth Elevation

Earthquake Activity

City Distance Mag. Time & Date
Minimum magnitude displayed is 2.5.

Coastal Water Temperatures

Place Temperature

Stations

Nearby Weather Stations

Station Location Temp. Windchill Dew Point Humidity Wind Precip. Elev Updated Type
                   

Watches & Warnings

There are currently no watches in effect.